sensor_id;sensor_type;location;lat;lon;timestamp;P1;durP1;ratioP1;P2;durP2;ratioP2
31114;SDS011;17764;47.152;9.828;2023-02-01T00:01:54;4.17;;;2.60;;
31114;SDS011;17764;47.152;9.828;2023-02-01T00:04:21;3.70;;;2.83;;
31114;SDS011;17764;47.152;9.828;2023-02-01T00:06:47;4.80;;;2.80;;
31114;SDS011;17764;47.152;9.828;2023-02-01T00:09:15;5.33;;;2.47;;
31114;SDS011;17764;47.152;9.828;2023-02-01T00:11:41;3.70;;;2.60;;
31114;SDS011;17764;47.152;9.828;2023-02-01T00:14:07;5.70;;;3.10;;
31114;SDS011;17764;47.152;9.828;2023-02-01T00:16:33;4.20;;;2.90;;
31114;SDS011;17764;47.152;9.828;2023-02-01T00:19:03;5.13;;;3.00;;
31114;SDS011;17764;47.152;9.828;2023-02-01T00:21:30;4.60;;;3.07;;
31114;SDS011;17764;47.152;9.828;2023-02-01T00:23:56;5.17;;;3.23;;
31114;SDS011;17764;47.152;9.828;2023-02-01T00:26:27;6.17;;;3.47;;
31114;SDS011;17764;47.152;9.828;2023-02-01T00:28:59;4.33;;;2.90;;
31114;SDS011;17764;47.152;9.828;2023-02-01T00:31:25;4.30;;;2.97;;
31114;SDS011;17764;47.152;9.828;2023-02-01T00:33:51;6.30;;;3.67;;
31114;SDS011;17764;47.152;9.828;2023-02-01T00:36:17;5.30;;;3.33;;
31114;SDS011;17764;47.152;9.828;2023-02-01T00:38:43;4.87;;;3.17;;
31114;SDS011;17764;47.152;9.828;2023-02-01T00:41:11;4.20;;;3.30;;
31114;SDS011;17764;47.152;9.828;2023-02-01T00:43:37;5.33;;;3.23;;
31114;SDS011;17764;47.152;9.828;2023-02-01T00:46:04;5.57;;;3.67;;
31114;SDS011;17764;47.152;9.828;2023-02-01T00:48:30;4.27;;;2.97;;
31114;SDS011;17764;47.152;9.828;2023-02-01T00:50:59;3.90;;;3.00;;
31114;SDS011;17764;47.152;9.828;2023-02-01T00:53:26;4.50;;;2.77;;
31114;SDS011;17764;47.152;9.828;2023-02-01T00:55:52;3.90;;;2.47;;
31114;SDS011;17764;47.152;9.828;2023-02-01T00:58:18;3.30;;;2.23;;
31114;SDS011;17764;47.152;9.828;2023-02-01T01:00:44;3.10;;;1.83;;
31114;SDS011;17764;47.152;9.828;2023-02-01T01:03:11;4.30;;;2.33;;
31114;SDS011;17764;47.152;9.828;2023-02-01T01:05:44;3.20;;;2.00;;
31114;SDS011;17764;47.152;9.828;2023-02-01T01:08:10;3.07;;;2.10;;
31114;SDS011;17764;47.152;9.828;2023-02-01T01:10:36;2.43;;;2.10;;
31114;SDS011;17764;47.152;9.828;2023-02-01T01:13:01;3.10;;;1.97;;
31114;SDS011;17764;47.152;9.828;2023-02-01T01:15:27;3.83;;;1.80;;
31114;SDS011;17764;47.152;9.828;2023-02-01T01:17:53;4.47;;;2.00;;
31114;SDS011;17764;47.152;9.828;2023-02-01T01:20:19;2.97;;;1.97;;
31114;SDS011;17764;47.152;9.828;2023-02-01T01:22:46;4.10;;;2.17;;
31114;SDS011;17764;47.152;9.828;2023-02-01T01:25:12;3.40;;;2.30;;
31114;SDS011;17764;47.152;9.828;2023-02-01T01:27:38;3.93;;;2.13;;
31114;SDS011;17764;47.152;9.828;2023-02-01T01:30:04;2.67;;;2.00;;
31114;SDS011;17764;47.152;9.828;2023-02-01T01:32:31;4.17;;;1.67;;
31114;SDS011;17764;47.152;9.828;2023-02-01T01:34:57;2.80;;;1.80;;
31114;SDS011;17764;47.152;9.828;2023-02-01T01:37:22;4.70;;;2.10;;
31114;SDS011;17764;47.152;9.828;2023-02-01T01:39:48;3.83;;;1.90;;
31114;SDS011;17764;47.152;9.828;2023-02-01T01:42:14;3.50;;;2.27;;
31114;SDS011;17764;47.152;9.828;2023-02-01T01:47:29;3.03;;;2.03;;
31114;SDS011;17764;47.152;9.828;2023-02-01T01:50:16;3.70;;;2.10;;
31114;SDS011;17764;47.152;9.828;2023-02-01T01:52:44;4.03;;;2.30;;
31114;SDS011;17764;47.152;9.828;2023-02-01T01:55:14;3.93;;;2.50;;
31114;SDS011;17764;47.152;9.828;2023-02-01T01:57:42;3.73;;;2.57;;
31114;SDS011;17764;47.152;9.828;2023-02-01T02:00:12;4.10;;;2.20;;
31114;SDS011;17764;47.152;9.828;2023-02-01T02:02:39;4.30;;;2.30;;
31114;SDS011;17764;47.152;9.828;2023-02-01T02:05:06;5.97;;;2.50;;
31114;SDS011;17764;47.152;9.828;2023-02-01T02:07:34;3.77;;;2.50;;
31114;SDS011;17764;47.152;9.828;2023-02-01T02:10:03;2.57;;;1.87;;
31114;SDS011;17764;47.152;9.828;2023-02-01T02:12:31;2.73;;;1.90;;
31114;SDS011;17764;47.152;9.828;2023-02-01T02:14:57;3.27;;;2.00;;
31114;SDS011;17764;47.152;9.828;2023-02-01T02:25:53;3.30;;;2.30;;
31114;SDS011;17764;47.152;9.828;2023-02-01T02:28:32;4.33;;;2.30;;
31114;SDS011;17764;47.152;9.828;2023-02-01T02:33:41;3.27;;;2.40;;
31114;SDS011;17764;47.152;9.828;2023-02-01T02:44:32;3.27;;;2.50;;
31114;SDS011;17764;47.152;9.828;2023-02-01T02:47:22;4.13;;;2.83;;
31114;SDS011;17764;47.152;9.828;2023-02-01T02:50:09;3.17;;;2.50;;
31114;SDS011;17764;47.152;9.828;2023-02-01T02:53:17;3.43;;;2.43;;
31114;SDS011;17764;47.152;9.828;2023-02-01T02:56:03;5.07;;;2.63;;
31114;SDS011;17764;47.152;9.828;2023-02-01T02:58:50;3.97;;;2.53;;
31114;SDS011;17764;47.152;9.828;2023-02-01T03:01:38;4.17;;;2.27;;
31114;SDS011;17764;47.152;9.828;2023-02-01T03:04:23;4.10;;;2.73;;
31114;SDS011;17764;47.152;9.828;2023-02-01T03:06:51;5.20;;;2.77;;
31114;SDS011;17764;47.152;9.828;2023-02-01T03:09:22;2.87;;;2.20;;
31114;SDS011;17764;47.152;9.828;2023-02-01T03:11:58;3.23;;;2.73;;
31114;SDS011;17764;47.152;9.828;2023-02-01T03:14:45;3.27;;;2.00;;
31114;SDS011;17764;47.152;9.828;2023-02-01T03:17:13;3.53;;;2.37;;
31114;SDS011;17764;47.152;9.828;2023-02-01T03:19:44;3.80;;;1.70;;
31114;SDS011;17764;47.152;9.828;2023-02-01T03:22:15;4.77;;;2.23;;
31114;SDS011;17764;47.152;9.828;2023-02-01T03:24:46;3.27;;;2.00;;
31114;SDS011;17764;47.152;9.828;2023-02-01T03:27:24;2.53;;;1.73;;
31114;SDS011;17764;47.152;9.828;2023-02-01T03:32:18;3.50;;;2.23;;
31114;SDS011;17764;47.152;9.828;2023-02-01T03:34:44;3.53;;;2.10;;
31114;SDS011;17764;47.152;9.828;2023-02-01T03:37:11;2.67;;;1.87;;
31114;SDS011;17764;47.152;9.828;2023-02-01T03:39:44;2.73;;;1.83;;
31114;SDS011;17764;47.152;9.828;2023-02-01T03:42:13;2.27;;;1.80;;
31114;SDS011;17764;47.152;9.828;2023-02-01T03:47:28;3.23;;;1.90;;
31114;SDS011;17764;47.152;9.828;2023-02-01T03:49:59;3.67;;;2.20;;
31114;SDS011;17764;47.152;9.828;2023-02-01T03:52:28;2.57;;;1.90;;
31114;SDS011;17764;47.152;9.828;2023-02-01T03:54:56;2.23;;;1.67;;
31114;SDS011;17764;47.152;9.828;2023-02-01T03:57:26;3.70;;;2.07;;
31114;SDS011;17764;47.152;9.828;2023-02-01T03:59:53;3.13;;;1.67;;
31114;SDS011;17764;47.152;9.828;2023-02-01T04:02:19;2.10;;;1.70;;
31114;SDS011;17764;47.152;9.828;2023-02-01T04:04:45;2.40;;;1.43;;
31114;SDS011;17764;47.152;9.828;2023-02-01T04:07:11;1.97;;;1.33;;
31114;SDS011;17764;47.152;9.828;2023-02-01T04:09:37;2.93;;;1.80;;
31114;SDS011;17764;47.152;9.828;2023-02-01T04:12:02;3.00;;;1.47;;
31114;SDS011;17764;47.152;9.828;2023-02-01T04:14:28;2.20;;;1.70;;
31114;SDS011;17764;47.152;9.828;2023-02-01T04:16:54;3.37;;;1.70;;
31114;SDS011;17764;47.152;9.828;2023-02-01T04:19:20;3.40;;;1.73;;
31114;SDS011;17764;47.152;9.828;2023-02-01T04:21:49;2.90;;;1.93;;
31114;SDS011;17764;47.152;9.828;2023-02-01T04:24:14;3.50;;;1.70;;
31114;SDS011;17764;47.152;9.828;2023-02-01T04:26:41;4.00;;;2.63;;
31114;SDS011;17764;47.152;9.828;2023-02-01T04:29:08;7.27;;;3.53;;
31114;SDS011;17764;47.152;9.828;2023-02-01T04:31:35;4.53;;;3.13;;
31114;SDS011;17764;47.152;9.828;2023-02-01T04:34:02;3.10;;;2.50;;
31114;SDS011;17764;47.152;9.828;2023-02-01T04:36:28;3.60;;;2.43;;
31114;SDS011;17764;47.152;9.828;2023-02-01T04:38:53;3.47;;;2.00;;
31114;SDS011;17764;47.152;9.828;2023-02-01T04:41:19;3.20;;;1.53;;
31114;SDS011;17764;47.152;9.828;2023-02-01T04:43:47;4.30;;;2.50;;
31114;SDS011;17764;47.152;9.828;2023-02-01T04:46:14;6.10;;;3.40;;
31114;SDS011;17764;47.152;9.828;2023-02-01T04:48:40;8.47;;;4.30;;
31114;SDS011;17764;47.152;9.828;2023-02-01T04:51:06;6.77;;;3.53;;
31114;SDS011;17764;47.152;9.828;2023-02-01T04:53:32;7.07;;;3.90;;
31114;SDS011;17764;47.152;9.828;2023-02-01T04:55:58;6.40;;;3.23;;
31114;SDS011;17764;47.152;9.828;2023-02-01T04:58:24;4.60;;;2.97;;
31114;SDS011;17764;47.152;9.828;2023-02-01T05:00:50;4.73;;;2.70;;
31114;SDS011;17764;47.152;9.828;2023-02-01T05:03:19;5.00;;;2.73;;
31114;SDS011;17764;47.152;9.828;2023-02-01T05:05:47;7.43;;;3.07;;
31114;SDS011;17764;47.152;9.828;2023-02-01T05:08:13;4.77;;;2.87;;
31114;SDS011;17764;47.152;9.828;2023-02-01T05:10:39;4.40;;;2.60;;
31114;SDS011;17764;47.152;9.828;2023-02-01T05:13:05;4.17;;;2.40;;
31114;SDS011;17764;47.152;9.828;2023-02-01T05:15:50;3.40;;;2.30;;
31114;SDS011;17764;47.152;9.828;2023-02-01T05:18:16;3.50;;;2.23;;
31114;SDS011;17764;47.152;9.828;2023-02-01T05:20:41;3.37;;;2.23;;
31114;SDS011;17764;47.152;9.828;2023-02-01T05:23:07;3.60;;;2.57;;
31114;SDS011;17764;47.152;9.828;2023-02-01T05:25:33;4.17;;;2.57;;
31114;SDS011;17764;47.152;9.828;2023-02-01T05:28:00;5.23;;;2.80;;
31114;SDS011;17764;47.152;9.828;2023-02-01T05:30:26;4.37;;;2.50;;
31114;SDS011;17764;47.152;9.828;2023-02-01T05:32:52;4.97;;;3.03;;
31114;SDS011;17764;47.152;9.828;2023-02-01T05:35:18;3.33;;;2.63;;
31114;SDS011;17764;47.152;9.828;2023-02-01T05:37:44;5.07;;;2.93;;
31114;SDS011;17764;47.152;9.828;2023-02-01T05:40:10;4.40;;;3.30;;
31114;SDS011;17764;47.152;9.828;2023-02-01T05:42:36;5.07;;;3.60;;
31114;SDS011;17764;47.152;9.828;2023-02-01T05:45:04;7.60;;;4.20;;
31114;SDS011;17764;47.152;9.828;2023-02-01T05:47:32;8.37;;;4.97;;
31114;SDS011;17764;47.152;9.828;2023-02-01T05:49:58;7.63;;;5.23;;
31114;SDS011;17764;47.152;9.828;2023-02-01T05:52:24;8.90;;;5.93;;
31114;SDS011;17764;47.152;9.828;2023-02-01T05:54:49;8.83;;;5.77;;
31114;SDS011;17764;47.152;9.828;2023-02-01T05:57:15;11.13;;;6.90;;
31114;SDS011;17764;47.152;9.828;2023-02-01T05:59:41;12.20;;;6.80;;
31114;SDS011;17764;47.152;9.828;2023-02-01T06:02:09;10.73;;;5.87;;
31114;SDS011;17764;47.152;9.828;2023-02-01T06:04:35;7.77;;;4.83;;
31114;SDS011;17764;47.152;9.828;2023-02-01T06:07:02;7.90;;;4.53;;
31114;SDS011;17764;47.152;9.828;2023-02-01T06:09:27;4.67;;;2.70;;
31114;SDS011;17764;47.152;9.828;2023-02-01T06:11:54;4.70;;;2.97;;
31114;SDS011;17764;47.152;9.828;2023-02-01T06:14:20;5.77;;;3.80;;
31114;SDS011;17764;47.152;9.828;2023-02-01T06:16:46;7.23;;;4.30;;
31114;SDS011;17764;47.152;9.828;2023-02-01T06:19:12;6.67;;;3.93;;
31114;SDS011;17764;47.152;9.828;2023-02-01T06:21:38;6.20;;;3.63;;
31114;SDS011;17764;47.152;9.828;2023-02-01T06:24:04;5.07;;;3.30;;
31114;SDS011;17764;47.152;9.828;2023-02-01T06:26:31;3.30;;;2.03;;
31114;SDS011;17764;47.152;9.828;2023-02-01T06:28:58;2.73;;;1.90;;
31114;SDS011;17764;47.152;9.828;2023-02-01T06:31:23;3.27;;;1.90;;
31114;SDS011;17764;47.152;9.828;2023-02-01T06:33:50;2.00;;;1.67;;
31114;SDS011;17764;47.152;9.828;2023-02-01T06:36:16;2.70;;;1.90;;
31114;SDS011;17764;47.152;9.828;2023-02-01T06:38:45;4.03;;;2.93;;
31114;SDS011;17764;47.152;9.828;2023-02-01T06:41:11;5.77;;;3.43;;
31114;SDS011;17764;47.152;9.828;2023-02-01T06:43:37;5.73;;;3.47;;
31114;SDS011;17764;47.152;9.828;2023-02-01T06:46:07;4.90;;;2.90;;
31114;SDS011;17764;47.152;9.828;2023-02-01T06:48:34;4.33;;;2.90;;
31114;SDS011;17764;47.152;9.828;2023-02-01T06:51:00;6.10;;;3.47;;
31114;SDS011;17764;47.152;9.828;2023-02-01T06:53:26;6.23;;;3.83;;
31114;SDS011;17764;47.152;9.828;2023-02-01T06:55:54;6.60;;;3.70;;
31114;SDS011;17764;47.152;9.828;2023-02-01T06:58:21;8.33;;;5.20;;
31114;SDS011;17764;47.152;9.828;2023-02-01T07:00:47;6.47;;;4.07;;
31114;SDS011;17764;47.152;9.828;2023-02-01T07:03:13;7.23;;;4.07;;
31114;SDS011;17764;47.152;9.828;2023-02-01T07:05:39;6.90;;;4.07;;
31114;SDS011;17764;47.152;9.828;2023-02-01T07:08:05;6.63;;;4.30;;
31114;SDS011;17764;47.152;9.828;2023-02-01T07:10:31;5.10;;;3.50;;
31114;SDS011;17764;47.152;9.828;2023-02-01T07:12:57;5.37;;;3.93;;
31114;SDS011;17764;47.152;9.828;2023-02-01T07:15:24;6.60;;;4.17;;
31114;SDS011;17764;47.152;9.828;2023-02-01T07:17:50;7.07;;;3.80;;
31114;SDS011;17764;47.152;9.828;2023-02-01T07:20:16;5.70;;;3.70;;
31114;SDS011;17764;47.152;9.828;2023-02-01T07:22:42;5.53;;;3.80;;
31114;SDS011;17764;47.152;9.828;2023-02-01T07:25:08;5.77;;;3.83;;
31114;SDS011;17764;47.152;9.828;2023-02-01T07:27:34;6.27;;;3.70;;
31114;SDS011;17764;47.152;9.828;2023-02-01T07:30:01;5.57;;;3.60;;
31114;SDS011;17764;47.152;9.828;2023-02-01T07:32:27;6.30;;;3.83;;
31114;SDS011;17764;47.152;9.828;2023-02-01T07:34:53;6.17;;;3.50;;
31114;SDS011;17764;47.152;9.828;2023-02-01T07:37:19;4.17;;;3.03;;
31114;SDS011;17764;47.152;9.828;2023-02-01T07:39:45;6.60;;;3.93;;
31114;SDS011;17764;47.152;9.828;2023-02-01T07:42:11;5.80;;;4.20;;
31114;SDS011;17764;47.152;9.828;2023-02-01T07:44:39;8.10;;;3.97;;
31114;SDS011;17764;47.152;9.828;2023-02-01T07:47:04;6.93;;;4.80;;
31114;SDS011;17764;47.152;9.828;2023-02-01T07:49:30;10.30;;;5.20;;
31114;SDS011;17764;47.152;9.828;2023-02-01T07:51:56;8.67;;;5.83;;
31114;SDS011;17764;47.152;9.828;2023-02-01T07:54:22;10.60;;;6.33;;
31114;SDS011;17764;47.152;9.828;2023-02-01T07:56:48;8.30;;;5.40;;
31114;SDS011;17764;47.152;9.828;2023-02-01T07:59:14;9.00;;;5.70;;
31114;SDS011;17764;47.152;9.828;2023-02-01T08:01:41;8.67;;;5.53;;
31114;SDS011;17764;47.152;9.828;2023-02-01T08:04:07;8.70;;;4.77;;
31114;SDS011;17764;47.152;9.828;2023-02-01T08:06:35;6.40;;;4.27;;
31114;SDS011;17764;47.152;9.828;2023-02-01T08:09:02;7.57;;;4.40;;
31114;SDS011;17764;47.152;9.828;2023-02-01T08:11:29;5.70;;;4.00;;
31114;SDS011;17764;47.152;9.828;2023-02-01T08:13:55;5.37;;;3.80;;
31114;SDS011;17764;47.152;9.828;2023-02-01T08:16:21;6.87;;;3.90;;
31114;SDS011;17764;47.152;9.828;2023-02-01T08:18:48;6.33;;;3.50;;
31114;SDS011;17764;47.152;9.828;2023-02-01T08:21:18;5.30;;;3.60;;
31114;SDS011;17764;47.152;9.828;2023-02-01T08:23:45;4.60;;;3.40;;
31114;SDS011;17764;47.152;9.828;2023-02-01T08:26:12;7.17;;;3.40;;
31114;SDS011;17764;47.152;9.828;2023-02-01T08:28:44;6.10;;;3.80;;
31114;SDS011;17764;47.152;9.828;2023-02-01T08:31:13;5.53;;;3.40;;
31114;SDS011;17764;47.152;9.828;2023-02-01T08:33:40;5.90;;;3.90;;
31114;SDS011;17764;47.152;9.828;2023-02-01T08:36:07;4.33;;;3.00;;
31114;SDS011;17764;47.152;9.828;2023-02-01T08:38:36;6.10;;;3.67;;
31114;SDS011;17764;47.152;9.828;2023-02-01T08:41:22;6.07;;;3.87;;
31114;SDS011;17764;47.152;9.828;2023-02-01T08:43:48;5.83;;;3.73;;
31114;SDS011;17764;47.152;9.828;2023-02-01T08:46:15;5.33;;;3.30;;
31114;SDS011;17764;47.152;9.828;2023-02-01T08:48:41;5.57;;;3.40;;
31114;SDS011;17764;47.152;9.828;2023-02-01T08:51:08;4.87;;;3.80;;
31114;SDS011;17764;47.152;9.828;2023-02-01T08:53:35;7.87;;;3.70;;
31114;SDS011;17764;47.152;9.828;2023-02-01T08:56:02;5.43;;;3.60;;
31114;SDS011;17764;47.152;9.828;2023-02-01T08:58:28;7.33;;;3.60;;
31114;SDS011;17764;47.152;9.828;2023-02-01T09:00:53;4.67;;;3.13;;
31114;SDS011;17764;47.152;9.828;2023-02-01T09:03:20;4.30;;;3.40;;
31114;SDS011;17764;47.152;9.828;2023-02-01T09:05:46;5.73;;;3.30;;
31114;SDS011;17764;47.152;9.828;2023-02-01T09:08:13;5.47;;;3.03;;
31114;SDS011;17764;47.152;9.828;2023-02-01T09:10:40;6.93;;;3.30;;
31114;SDS011;17764;47.152;9.828;2023-02-01T09:13:06;8.07;;;3.63;;
31114;SDS011;17764;47.152;9.828;2023-02-01T09:15:33;5.57;;;3.77;;
31114;SDS011;17764;47.152;9.828;2023-02-01T09:17:58;6.97;;;3.70;;
31114;SDS011;17764;47.152;9.828;2023-02-01T09:20:24;5.37;;;3.40;;
31114;SDS011;17764;47.152;9.828;2023-02-01T09:22:54;6.53;;;3.80;;
31114;SDS011;17764;47.152;9.828;2023-02-01T09:25:20;6.13;;;4.03;;
31114;SDS011;17764;47.152;9.828;2023-02-01T09:27:46;4.50;;;3.43;;
31114;SDS011;17764;47.152;9.828;2023-02-01T09:30:12;6.33;;;3.90;;
31114;SDS011;17764;47.152;9.828;2023-02-01T09:32:38;5.77;;;3.63;;
31114;SDS011;17764;47.152;9.828;2023-02-01T09:35:04;6.43;;;3.73;;
31114;SDS011;17764;47.152;9.828;2023-02-01T09:37:29;5.63;;;3.90;;
31114;SDS011;17764;47.152;9.828;2023-02-01T09:39:55;5.47;;;3.63;;
31114;SDS011;17764;47.152;9.828;2023-02-01T09:47:20;5.63;;;3.50;;
31114;SDS011;17764;47.152;9.828;2023-02-01T09:49:58;6.00;;;3.80;;
31114;SDS011;17764;47.152;9.828;2023-02-01T09:52:38;7.17;;;4.53;;
31114;SDS011;17764;47.152;9.828;2023-02-01T09:55:11;7.70;;;4.73;;
31114;SDS011;17764;47.152;9.828;2023-02-01T10:00:56;7.27;;;5.00;;
31114;SDS011;17764;47.152;9.828;2023-02-01T10:03:00;6.27;;;4.30;;
31114;SDS011;17764;47.152;9.828;2023-02-01T10:05:48;7.47;;;4.57;;
31114;SDS011;17764;47.152;9.828;2023-02-01T10:10:48;8.40;;;5.33;;
31114;SDS011;17764;47.152;9.828;2023-02-01T10:13:18;6.60;;;5.07;;
31114;SDS011;17764;47.152;9.828;2023-02-01T10:15:50;6.47;;;4.70;;
31114;SDS011;17764;47.152;9.828;2023-02-01T10:18:27;6.80;;;4.93;;
31114;SDS011;17764;47.152;9.828;2023-02-01T10:21:14;6.90;;;4.97;;
31114;SDS011;17764;47.152;9.828;2023-02-01T10:26:25;8.37;;;5.50;;
31114;SDS011;17764;47.152;9.828;2023-02-01T10:28:52;7.00;;;4.97;;
31114;SDS011;17764;47.152;9.828;2023-02-01T10:31:23;9.90;;;5.30;;
31114;SDS011;17764;47.152;9.828;2023-02-01T10:33:53;7.70;;;5.23;;
31114;SDS011;17764;47.152;9.828;2023-02-01T10:36:29;6.80;;;5.00;;
31114;SDS011;17764;47.152;9.828;2023-02-01T10:39:00;7.80;;;5.00;;
31114;SDS011;17764;47.152;9.828;2023-02-01T10:41:30;7.23;;;5.33;;
31114;SDS011;17764;47.152;9.828;2023-02-01T10:43:58;7.87;;;4.77;;
31114;SDS011;17764;47.152;9.828;2023-02-01T10:46:26;7.53;;;5.27;;
31114;SDS011;17764;47.152;9.828;2023-02-01T10:48:52;6.77;;;4.70;;
31114;SDS011;17764;47.152;9.828;2023-02-01T10:51:20;8.53;;;5.20;;
31114;SDS011;17764;47.152;9.828;2023-02-01T10:54:11;7.50;;;5.17;;
31114;SDS011;17764;47.152;9.828;2023-02-01T10:56:45;6.40;;;4.67;;
31114;SDS011;17764;47.152;9.828;2023-02-01T10:59:19;6.53;;;4.03;;
31114;SDS011;17764;47.152;9.828;2023-02-01T11:01:48;6.13;;;4.43;;
31114;SDS011;17764;47.152;9.828;2023-02-01T11:04:15;8.20;;;4.63;;
31114;SDS011;17764;47.152;9.828;2023-02-01T11:06:43;8.03;;;4.47;;
31114;SDS011;17764;47.152;9.828;2023-02-01T11:09:18;8.10;;;4.87;;
31114;SDS011;17764;47.152;9.828;2023-02-01T11:14:14;7.60;;;4.50;;
31114;SDS011;17764;47.152;9.828;2023-02-01T11:16:48;9.07;;;5.60;;
31114;SDS011;17764;47.152;9.828;2023-02-01T11:19:16;6.17;;;4.30;;
31114;SDS011;17764;47.152;9.828;2023-02-01T11:21:43;8.27;;;4.40;;
31114;SDS011;17764;47.152;9.828;2023-02-01T11:24:21;6.90;;;4.70;;
31114;SDS011;17764;47.152;9.828;2023-02-01T11:26:48;6.30;;;4.37;;
31114;SDS011;17764;47.152;9.828;2023-02-01T11:29:19;6.37;;;4.47;;
31114;SDS011;17764;47.152;9.828;2023-02-01T11:31:49;5.63;;;4.00;;
31114;SDS011;17764;47.152;9.828;2023-02-01T11:34:20;9.50;;;4.47;;
31114;SDS011;17764;47.152;9.828;2023-02-01T11:36:49;6.63;;;4.07;;
31114;SDS011;17764;47.152;9.828;2023-02-01T11:39:24;8.13;;;4.40;;
31114;SDS011;17764;47.152;9.828;2023-02-01T11:49:42;6.17;;;3.93;;
31114;SDS011;17764;47.152;9.828;2023-02-01T11:52:11;5.63;;;4.00;;
31114;SDS011;17764;47.152;9.828;2023-02-01T12:08:16;4.43;;;3.53;;
31114;SDS011;17764;47.152;9.828;2023-02-01T12:11:07;9.63;;;3.07;;
31114;SDS011;17764;47.152;9.828;2023-02-01T12:16:07;5.07;;;2.70;;
31114;SDS011;17764;47.152;9.828;2023-02-01T12:40:30;5.67;;;2.50;;
31114;SDS011;17764;47.152;9.828;2023-02-01T12:43:19;7.77;;;2.73;;
31114;SDS011;17764;47.152;9.828;2023-02-01T12:46:02;6.00;;;2.90;;
31114;SDS011;17764;47.152;9.828;2023-02-01T12:48:43;4.60;;;2.60;;
31114;SDS011;17764;47.152;9.828;2023-02-01T12:51:18;5.07;;;3.10;;
31114;SDS011;17764;47.152;9.828;2023-02-01T12:53:52;6.67;;;2.53;;
31114;SDS011;17764;47.152;9.828;2023-02-01T12:56:21;4.60;;;2.53;;
31114;SDS011;17764;47.152;9.828;2023-02-01T12:58:49;3.97;;;2.60;;
31114;SDS011;17764;47.152;9.828;2023-02-01T13:01:30;5.20;;;2.40;;
31114;SDS011;17764;47.152;9.828;2023-02-01T13:09:39;3.77;;;2.40;;
31114;SDS011;17764;47.152;9.828;2023-02-01T13:12:42;5.30;;;2.63;;
31114;SDS011;17764;47.152;9.828;2023-02-01T13:15:13;4.10;;;2.60;;
31114;SDS011;17764;47.152;9.828;2023-02-01T13:17:54;6.13;;;2.13;;
31114;SDS011;17764;47.152;9.828;2023-02-01T13:20:24;2.93;;;1.37;;
31114;SDS011;17764;47.152;9.828;2023-02-01T13:22:55;2.13;;;1.40;;
31114;SDS011;17764;47.152;9.828;2023-02-01T13:27:52;3.50;;;1.40;;
31114;SDS011;17764;47.152;9.828;2023-02-01T13:30:20;3.80;;;1.17;;
31114;SDS011;17764;47.152;9.828;2023-02-01T13:41:07;2.77;;;1.03;;
31114;SDS011;17764;47.152;9.828;2023-02-01T13:43:44;2.67;;;0.93;;
31114;SDS011;17764;47.152;9.828;2023-02-01T13:46:14;2.43;;;1.10;;
31114;SDS011;17764;47.152;9.828;2023-02-01T13:49:02;1.57;;;0.90;;
31114;SDS011;17764;47.152;9.828;2023-02-01T13:54:07;2.70;;;0.93;;
31114;SDS011;17764;47.152;9.828;2023-02-01T13:56:48;1.20;;;0.90;;
31114;SDS011;17764;47.152;9.828;2023-02-01T14:04:49;1.60;;;0.83;;
31114;SDS011;17764;47.152;9.828;2023-02-01T14:07:19;1.43;;;0.93;;
31114;SDS011;17764;47.152;9.828;2023-02-01T14:09:46;1.07;;;0.80;;
31114;SDS011;17764;47.152;9.828;2023-02-01T14:15:16;1.77;;;0.97;;
31114;SDS011;17764;47.152;9.828;2023-02-01T14:17:42;1.07;;;0.80;;
31114;SDS011;17764;47.152;9.828;2023-02-01T14:23:00;2.63;;;0.90;;
31114;SDS011;17764;47.152;9.828;2023-02-01T14:25:31;0.80;;;0.70;;
31114;SDS011;17764;47.152;9.828;2023-02-01T14:27:58;2.57;;;0.87;;
31114;SDS011;17764;47.152;9.828;2023-02-01T14:30:24;4.10;;;0.90;;
31114;SDS011;17764;47.152;9.828;2023-02-01T14:32:50;1.43;;;0.80;;
31114;SDS011;17764;47.152;9.828;2023-02-01T14:35:20;1.10;;;0.80;;
31114;SDS011;17764;47.152;9.828;2023-02-01T14:37:46;2.03;;;0.77;;
31114;SDS011;17764;47.152;9.828;2023-02-01T14:40:16;2.17;;;1.40;;
31114;SDS011;17764;47.152;9.828;2023-02-01T14:42:45;1.83;;;1.20;;
31114;SDS011;17764;47.152;9.828;2023-02-01T14:47:49;3.30;;;1.50;;
31114;SDS011;17764;47.152;9.828;2023-02-01T14:50:36;2.53;;;1.60;;
31114;SDS011;17764;47.152;9.828;2023-02-01T14:55:38;3.47;;;1.77;;
31114;SDS011;17764;47.152;9.828;2023-02-01T14:58:06;2.63;;;1.63;;
31114;SDS011;17764;47.152;9.828;2023-02-01T15:00:46;3.10;;;1.87;;
31114;SDS011;17764;47.152;9.828;2023-02-01T15:03:22;3.80;;;1.80;;
31114;SDS011;17764;47.152;9.828;2023-02-01T15:05:58;2.60;;;1.70;;
31114;SDS011;17764;47.152;9.828;2023-02-01T15:08:29;3.47;;;1.70;;
31114;SDS011;17764;47.152;9.828;2023-02-01T15:10:56;3.47;;;1.90;;
31114;SDS011;17764;47.152;9.828;2023-02-01T15:13:24;4.20;;;1.93;;
31114;SDS011;17764;47.152;9.828;2023-02-01T15:16:10;4.83;;;2.27;;
31114;SDS011;17764;47.152;9.828;2023-02-01T15:18:36;4.53;;;2.30;;
31114;SDS011;17764;47.152;9.828;2023-02-01T15:21:04;3.20;;;2.23;;
31114;SDS011;17764;47.152;9.828;2023-02-01T15:23:31;4.57;;;2.13;;
31114;SDS011;17764;47.152;9.828;2023-02-01T15:25:58;2.97;;;2.30;;
31114;SDS011;17764;47.152;9.828;2023-02-01T15:28:24;6.37;;;2.30;;
31114;SDS011;17764;47.152;9.828;2023-02-01T15:31:04;4.73;;;2.20;;
31114;SDS011;17764;47.152;9.828;2023-02-01T15:33:31;3.87;;;2.37;;
31114;SDS011;17764;47.152;9.828;2023-02-01T15:36:07;6.63;;;2.33;;
31114;SDS011;17764;47.152;9.828;2023-02-01T15:38:35;5.27;;;2.37;;
31114;SDS011;17764;47.152;9.828;2023-02-01T15:46:21;3.20;;;2.00;;
31114;SDS011;17764;47.152;9.828;2023-02-01T15:48:49;4.87;;;2.40;;
31114;SDS011;17764;47.152;9.828;2023-02-01T15:51:20;3.30;;;2.33;;
31114;SDS011;17764;47.152;9.828;2023-02-01T15:53:51;3.90;;;2.30;;
31114;SDS011;17764;47.152;9.828;2023-02-01T15:56:24;3.77;;;2.40;;
31114;SDS011;17764;47.152;9.828;2023-02-01T15:58:52;4.00;;;2.03;;
31114;SDS011;17764;47.152;9.828;2023-02-01T16:01:20;5.37;;;2.30;;
31114;SDS011;17764;47.152;9.828;2023-02-01T16:03:46;3.90;;;2.13;;
31114;SDS011;17764;47.152;9.828;2023-02-01T16:08:50;3.90;;;2.43;;
31114;SDS011;17764;47.152;9.828;2023-02-01T16:13:56;4.53;;;2.10;;
31114;SDS011;17764;47.152;9.828;2023-02-01T16:16:22;2.70;;;1.90;;
31114;SDS011;17764;47.152;9.828;2023-02-01T16:18:48;2.87;;;1.93;;
31114;SDS011;17764;47.152;9.828;2023-02-01T16:21:14;4.17;;;2.20;;
31114;SDS011;17764;47.152;9.828;2023-02-01T16:23:40;2.60;;;1.83;;
31114;SDS011;17764;47.152;9.828;2023-02-01T16:26:06;2.80;;;2.00;;
31114;SDS011;17764;47.152;9.828;2023-02-01T16:28:32;2.90;;;2.20;;
31114;SDS011;17764;47.152;9.828;2023-02-01T16:30:58;2.53;;;1.93;;
31114;SDS011;17764;47.152;9.828;2023-02-01T16:33:24;2.10;;;1.83;;
31114;SDS011;17764;47.152;9.828;2023-02-01T16:35:51;2.57;;;1.80;;
31114;SDS011;17764;47.152;9.828;2023-02-01T16:38:18;1.70;;;1.50;;
31114;SDS011;17764;47.152;9.828;2023-02-01T16:40:46;2.77;;;1.67;;
31114;SDS011;17764;47.152;9.828;2023-02-01T16:43:17;3.60;;;1.80;;
31114;SDS011;17764;47.152;9.828;2023-02-01T16:45:44;3.20;;;2.00;;
31114;SDS011;17764;47.152;9.828;2023-02-01T16:48:23;2.60;;;1.90;;
31114;SDS011;17764;47.152;9.828;2023-02-01T16:50:51;3.73;;;2.13;;
31114;SDS011;17764;47.152;9.828;2023-02-01T16:53:18;3.27;;;2.20;;
31114;SDS011;17764;47.152;9.828;2023-02-01T16:55:44;3.53;;;1.80;;
31114;SDS011;17764;47.152;9.828;2023-02-01T16:58:12;4.20;;;2.10;;
31114;SDS011;17764;47.152;9.828;2023-02-01T17:00:38;4.73;;;2.30;;
31114;SDS011;17764;47.152;9.828;2023-02-01T17:03:04;4.40;;;2.20;;
31114;SDS011;17764;47.152;9.828;2023-02-01T17:05:31;4.83;;;2.60;;
31114;SDS011;17764;47.152;9.828;2023-02-01T17:07:58;4.97;;;3.20;;
31114;SDS011;17764;47.152;9.828;2023-02-01T17:10:28;5.03;;;3.27;;
31114;SDS011;17764;47.152;9.828;2023-02-01T17:12:55;6.67;;;4.20;;
31114;SDS011;17764;47.152;9.828;2023-02-01T17:15:22;7.33;;;4.60;;